Time;durP1;ratioP1;P1;durP2;ratioP2;P2;SDS_P1;SDS_P2;PMS_P1;PMS_P2;Temp;Humidity;BMP_temperature;BMP_pressure;BME280_temperature;BME280_humidity;BME280_pressure;Samples;Min_cycle;Max_cycle;Signal;HPM_P1;HPM_P2
2023/08/19 05:44:11;;;;;;;;;4.25;4.00;;;;;;;;5006089;28;74613;-73
2023/08/19 05:46:36;;;;;;;;;3.00;3.00;;;;;;;;5015057;28;45456;-73
2023/08/19 05:49:01;;;;;;;;;4.50;4.50;;;;;;;;5010974;28;45265;-73
2023/08/19 05:51:27;;;;;;;;;5.50;4.50;;;;;;;;5018302;28;45407;-73
2023/08/19 05:53:58;;;;;;;;;6.25;4.25;;;;;;;;5011094;28;46782;-73
2023/08/19 05:56:24;;;;;;;;;6.00;4.60;;;;;;;;5013768;28;45390;-74
2023/08/19 05:58:49;;;;;;;;;2.50;2.50;;;;;;;;5010126;28;45885;-73
2023/08/19 06:01:14;;;;;;;;;5.75;3.50;;;;;;;;5018475;28;45453;-73
2023/08/19 06:03:39;;;;;;;;;2.00;2.00;;;;;;;;5013777;28;45882;-73
2023/08/19 06:06:05;;;;;;;;;4.25;3.00;;;;;;;;5017551;28;45272;-73
2023/08/19 06:08:31;;;;;;;;;4.50;4.00;;;;;;;;5006924;28;45479;-73
2023/08/19 06:11:02;;;;;;;;;5.00;3.75;;;;;;;;5013333;28;45835;-74
2023/08/19 06:13:27;;;;;;;;;4.00;4.00;;;;;;;;5014198;28;47369;-73
2023/08/19 06:15:53;;;;;;;;;2.75;2.00;;;;;;;;5015853;28;45347;-76
2023/08/19 06:18:18;;;;;;;;;4.00;4.00;;;;;;;;5010837;28;45483;-72
2023/08/19 06:20:43;;;;;;;;;3.00;3.00;;;;;;;;5014336;28;45491;-74
2023/08/19 06:23:09;;;;;;;;;4.25;3.50;;;;;;;;5012923;28;46655;-74
2023/08/19 06:25:34;;;;;;;;;5.00;4.00;;;;;;;;5015752;28;45361;-74
2023/08/19 06:27:59;;;;;;;;;3.25;3.25;;;;;;;;5010144;28;45666;-74
2023/08/19 06:30:24;;;;;;;;;4.50;3.50;;;;;;;;5015101;28;45965;-73
2023/08/19 06:32:49;;;;;;;;;4.50;4.50;;;;;;;;5011265;28;45607;-73
2023/08/19 06:35:15;;;;;;;;;3.25;3.25;;;;;;;;5016721;28;45328;-73
2023/08/19 06:37:41;;;;;;;;;3.25;3.25;;;;;;;;5009189;28;45714;-73
2023/08/19 06:40:08;;;;;;;;;4.80;2.80;;;;;;;;5015289;28;46424;-73
2023/08/19 06:42:35;;;;;;;;;5.00;3.00;;;;;;;;5010218;28;45394;-73
2023/08/19 06:45:00;;;;;;;;;2.80;2.80;;;;;;;;5010220;28;45882;-73
2023/08/19 06:47:27;;;;;;;;;4.00;4.00;;;;;;;;5010503;28;45808;-72
2023/08/19 06:49:52;;;;;;;;;3.50;3.50;;;;;;;;5016867;28;45382;-73
2023/08/19 06:52:18;;;;;;;;;2.75;2.75;;;;;;;;5011735;28;45494;-73
2023/08/19 06:54:43;;;;;;;;;2.60;2.60;;;;;;;;5004855;28;45395;-74
2023/08/19 06:57:15;;;;;;;;;3.75;2.00;;;;;;;;5012419;28;45347;-73
2023/08/19 06:59:41;;;;;;;;;5.50;4.75;;;;;;;;5003601;28;46268;-74
2023/08/19 07:02:07;;;;;;;;;6.50;4.75;;;;;;;;5012592;28;45725;-74
2023/08/19 07:04:33;;;;;;;;;5.00;4.40;;;;;;;;5006266;28;45376;-73
2023/08/19 07:06:59;;;;;;;;;4.50;3.50;;;;;;;;5012032;28;45428;-73
2023/08/19 07:09:25;;;;;;;;;5.00;5.00;;;;;;;;5013619;28;45405;-73
2023/08/19 07:11:54;;;;;;;;;4.75;3.25;;;;;;;;5012343;28;48146;-73
2023/08/19 07:14:20;;;;;;;;;5.00;5.00;;;;;;;;5014447;28;45627;-74
2023/08/19 07:16:47;;;;;;;;;5.00;5.00;;;;;;;;5015587;28;45579;-73
2023/08/19 07:19:14;;;;;;;;;7.00;6.00;;;;;;;;5010484;28;45327;-73
2023/08/19 07:21:39;;;;;;;;;6.00;5.25;;;;;;;;5018137;28;46047;-74
2023/08/19 07:24:05;;;;;;;;;4.50;4.50;;;;;;;;5019896;28;45396;-73
2023/08/19 07:26:31;;;;;;;;;5.25;4.00;;;;;;;;5020262;28;45381;-73
2023/08/19 07:28:56;;;;;;;;;4.00;4.00;;;;;;;;5017922;28;45581;-74
2023/08/19 07:31:22;;;;;;;;;7.00;6.00;;;;;;;;5021266;28;45437;-74
2023/08/19 07:33:47;;;;;;;;;3.75;3.75;;;;;;;;5017966;28;45320;-74
2023/08/19 07:36:12;;;;;;;;;6.00;5.75;;;;;;;;5020232;28;45441;-74
2023/08/19 07:38:38;;;;;;;;;5.00;5.00;;;;;;;;5016864;28;45470;-74
2023/08/19 07:41:03;;;;;;;;;5.25;5.25;;;;;;;;5021209;28;45567;-73
2023/08/19 07:43:28;;;;;;;;;7.25;3.25;;;;;;;;5008854;28;45426;-74
2023/08/19 07:45:53;;;;;;;;;6.00;6.00;;;;;;;;5018875;28;45404;-74
2023/08/19 07:48:18;;;;;;;;;5.25;5.25;;;;;;;;5010420;28;45536;-74
2023/08/19 07:50:43;;;;;;;;;5.50;5.50;;;;;;;;5018371;28;45333;-75
2023/08/19 07:53:09;;;;;;;;;8.25;7.00;;;;;;;;5013529;28;45285;-75
2023/08/19 07:55:34;;;;;;;;;7.75;5.25;;;;;;;;5020205;28;45328;-75
2023/08/19 07:57:59;;;;;;;;;2.75;2.75;;;;;;;;5015812;28;45208;-75
2023/08/19 08:00:24;;;;;;;;;4.75;4.75;;;;;;;;5013450;28;45236;-73
2023/08/19 08:02:50;;;;;;;;;3.75;3.50;;;;;;;;5017769;28;45476;-76
2023/08/19 08:05:15;;;;;;;;;5.75;4.75;;;;;;;;5013695;28;45410;-76
2023/08/19 08:07:40;;;;;;;;;4.50;4.50;;;;;;;;5014559;28;47143;-76
2023/08/19 08:10:05;;;;;;;;;4.50;4.50;;;;;;;;5019354;28;46874;-75
2023/08/19 08:12:31;;;;;;;;;6.50;5.00;;;;;;;;5016132;28;46166;-76
2023/08/19 08:14:59;;;;;;;;;7.25;5.00;;;;;;;;5018289;28;45318;-75
2023/08/19 08:17:25;;;;;;;;;4.75;4.00;;;;;;;;5017217;28;45474;-76
2023/08/19 08:19:50;;;;;;;;;3.25;3.25;;;;;;;;5019374;28;46194;-76
2023/08/19 08:22:16;;;;;;;;;6.00;3.75;;;;;;;;5018753;28;45218;-76
2023/08/19 08:24:42;;;;;;;;;2.50;2.25;;;;;;;;5019680;28;45500;-75
2023/08/19 08:27:07;;;;;;;;;2.00;2.00;;;;;;;;5015847;28;46118;-75
2023/08/19 08:29:32;;;;;;;;;4.50;3.00;;;;;;;;5019334;28;45395;-76
2023/08/19 08:31:57;;;;;;;;;3.50;3.00;;;;;;;;5015140;28;44727;-75
2023/08/19 08:34:22;;;;;;;;;6.25;4.00;;;;;;;;5014091;28;45161;-75
2023/08/19 08:36:48;;;;;;;;;3.75;3.75;;;;;;;;5017508;28;45446;-75
2023/08/19 08:39:14;;;;;;;;;6.25;4.00;;;;;;;;5015316;28;46315;-75
2023/08/19 08:41:42;;;;;;;;;3.20;3.20;;;;;;;;5017478;28;45419;-73
2023/08/19 08:44:08;;;;;;;;;5.25;2.75;;;;;;;;5003958;28;45324;-74
2023/08/19 08:46:34;;;;;;;;;4.25;4.25;;;;;;;;5004719;28;45423;-75
2023/08/19 08:49:00;;;;;;;;;4.00;4.00;;;;;;;;5009112;28;45689;-74
2023/08/19 08:51:26;;;;;;;;;4.00;4.00;;;;;;;;5014164;28;45379;-74
2023/08/19 08:53:52;;;;;;;;;3.25;3.25;;;;;;;;5015580;28;45517;-74
2023/08/19 08:56:18;;;;;;;;;4.75;4.00;;;;;;;;5015867;28;45299;-74
2023/08/19 08:58:43;;;;;;;;;3.75;3.75;;;;;;;;5010762;28;45727;-75
2023/08/19 09:01:09;;;;;;;;;3.50;3.50;;;;;;;;5013890;28;45402;-75
2023/08/19 09:03:36;;;;;;;;;3.25;3.25;;;;;;;;5036560;28;45452;-74
2023/08/19 09:06:07;;;;;;;;;4.75;4.00;;;;;;;;5000460;28;45395;-74
2023/08/19 09:08:41;;;;;;;;;4.75;3.00;;;;;;;;5012789;28;47484;-74
2023/08/19 09:11:09;;;;;;;;;2.60;2.60;;;;;;;;5017876;28;45231;-74
2023/08/19 09:13:35;;;;;;;;;3.00;3.00;;;;;;;;5014908;28;45233;-75
2023/08/19 09:16:00;;;;;;;;;2.00;2.00;;;;;;;;5018611;28;45950;-74
2023/08/19 09:18:26;;;;;;;;;3.00;3.00;;;;;;;;5017253;28;47510;-76
2023/08/19 09:20:51;;;;;;;;;4.75;4.75;;;;;;;;5018736;28;45310;-74
2023/08/19 09:23:16;;;;;;;;;5.00;3.75;;;;;;;;5017478;28;45264;-74
2023/08/19 09:25:41;;;;;;;;;3.00;3.00;;;;;;;;5018444;28;45499;-73
2023/08/19 09:28:07;;;;;;;;;4.00;4.00;;;;;;;;5011786;28;45541;-73
2023/08/19 09:30:33;;;;;;;;;4.00;3.25;;;;;;;;5018360;28;45305;-73
2023/08/19 09:32:59;;;;;;;;;4.75;1.75;;;;;;;;5012878;28;45284;-73
2023/08/19 09:35:25;;;;;;;;;6.75;5.00;;;;;;;;5017399;28;45525;-73
2023/08/19 09:37:50;;;;;;;;;5.25;5.00;;;;;;;;5009637;28;48060;-74
2023/08/19 09:40:20;;;;;;;;;4.25;4.25;;;;;;;;5016474;28;45269;-73
2023/08/19 09:42:46;;;;;;;;;4.75;4.75;;;;;;;;5011147;28;45430;-72
2023/08/19 09:45:16;;;;;;;;;7.50;4.00;;;;;;;;5009771;28;45439;-72
2023/08/19 09:47:50;;;;;;;;;6.75;4.00;;;;;;;;5013702;28;45324;-72
2023/08/19 09:50:17;;;;;;;;;6.00;3.00;;;;;;;;5016553;28;45337;-73
2023/08/19 09:52:51;;;;;;;;;4.25;4.25;;;;;;;;5015092;28;45332;-72
2023/08/19 09:55:20;;;;;;;;;6.00;5.00;;;;;;;;5013823;28;45330;-72
2023/08/19 09:57:46;;;;;;;;;6.25;5.00;;;;;;;;5010370;28;45576;-73
2023/08/19 10:00:11;;;;;;;;;3.25;3.25;;;;;;;;5012324;28;46599;-72
2023/08/19 10:02:36;;;;;;;;;3.75;3.75;;;;;;;;5011945;28;45555;-72
2023/08/19 10:05:03;;;;;;;;;2.50;2.50;;;;;;;;5013034;28;45453;-72
2023/08/19 10:07:32;;;;;;;;;4.25;4.25;;;;;;;;5012213;28;45424;-72
2023/08/19 10:10:01;;;;;;;;;4.00;4.00;;;;;;;;5015670;28;45431;-72
2023/08/19 10:12:27;;;;;;;;;7.50;5.00;;;;;;;;5014169;28;45315;-72
2023/08/19 10:14:56;;;;;;;;;6.50;5.00;;;;;;;;5015678;28;45388;-73
2023/08/19 10:17:21;;;;;;;;;6.50;4.00;;;;;;;;5016656;28;45236;-72
2023/08/19 10:19:50;;;;;;;;;2.50;2.25;;;;;;;;5018740;28;45229;-72
2023/08/19 10:22:16;;;;;;;;;3.50;3.50;;;;;;;;5015890;28;45245;-72
2023/08/19 10:24:42;;;;;;;;;4.50;4.50;;;;;;;;5017624;28;45402;-72
2023/08/19 10:27:14;;;;;;;;;5.00;3.75;;;;;;;;5014222;28;46989;-73
2023/08/19 10:29:40;;;;;;;;;5.25;4.25;;;;;;;;5011932;28;45424;-73
2023/08/19 10:32:31;;;;;;;;;7.00;5.75;;;;;;;;5015617;28;45296;-73
2023/08/19 10:35:09;;;;;;;;;4.00;4.00;;;;;;;;5012477;28;45295;-73
2023/08/19 10:37:35;;;;;;;;;5.00;5.00;;;;;;;;5047662;28;46826;-72
2023/08/19 10:40:09;;;;;;;;;5.00;5.00;;;;;;;;5015571;28;45434;-73
2023/08/19 10:42:35;;;;;;;;;5.00;3.25;;;;;;;;5011685;28;45373;-73
2023/08/19 10:45:00;;;;;;;;;5.00;4.00;;;;;;;;5018128;28;45146;-74
2023/08/19 10:47:25;;;;;;;;;6.00;5.00;;;;;;;;5012715;28;45414;-73
2023/08/19 10:49:59;;;;;;;;;8.00;6.00;;;;;;;;5014135;28;45240;-72
2023/08/19 10:52:24;;;;;;;;;4.50;4.50;;;;;;;;5013496;28;45307;-73
2023/08/19 10:54:49;;;;;;;;;6.25;5.75;;;;;;;;5017831;28;45764;-73
2023/08/19 10:57:24;;;;;;;;;4.00;4.00;;;;;;;;5018143;28;45573;-74
2023/08/19 10:59:58;;;;;;;;;5.40;4.00;;;;;;;;5018960;28;45298;-73
2023/08/19 11:02:24;;;;;;;;;6.00;6.00;;;;;;;;5019274;28;45382;-74
2023/08/19 11:04:50;;;;;;;;;5.50;4.25;;;;;;;;5019744;28;45523;-75
2023/08/19 11:07:16;;;;;;;;;4.00;4.00;;;;;;;;5017306;28;45869;-74
2023/08/19 11:09:42;;;;;;;;;6.75;5.00;;;;;;;;5016745;28;45809;-74
2023/08/19 11:12:07;;;;;;;;;3.40;3.40;;;;;;;;5016906;28;45535;-74
2023/08/19 11:14:33;;;;;;;;;2.00;2.00;;;;;;;;5019324;28;45356;-74
2023/08/19 11:16:58;;;;;;;;;3.25;3.00;;;;;;;;5019500;28;45359;-73
2023/08/19 11:19:23;;;;;;;;;5.00;3.25;;;;;;;;5020432;28;45467;-74
2023/08/19 11:21:49;;;;;;;;;4.00;2.75;;;;;;;;5020205;28;45256;-73
2023/08/19 11:24:14;;;;;;;;;3.00;2.50;;;;;;;;5019563;28;45299;-74
2023/08/19 11:26:44;;;;;;;;;3.00;1.50;;;;;;;;5019338;28;45431;-74
2023/08/19 11:29:09;;;;;;;;;4.00;4.00;;;;;;;;5013986;28;45171;-74
2023/08/19 11:31:35;;;;;;;;;2.00;2.00;;;;;;;;5020450;28;45348;-73
2023/08/19 11:34:00;;;;;;;;;2.50;2.50;;;;;;;;5015117;28;45547;-75
2023/08/19 11:36:26;;;;;;;;;2.25;1.25;;;;;;;;5005559;28;45377;-73
2023/08/19 11:38:57;;;;;;;;;2.00;2.00;;;;;;;;5013807;28;45387;-73
2023/08/19 11:41:23;;;;;;;;;1.00;1.00;;;;;;;;5005234;28;45230;-74
2023/08/19 11:43:50;;;;;;;;;2.00;2.00;;;;;;;;5010116;28;45665;-73
2023/08/19 11:46:15;;;;;;;;;2.80;2.00;;;;;;;;5003937;28;46769;-73
2023/08/19 11:48:40;;;;;;;;;2.25;1.00;;;;;;;;5008345;28;45849;-74
2023/08/19 11:51:10;;;;;;;;;3.75;3.75;;;;;;;;5011885;28;45241;-74
2023/08/19 11:53:35;;;;;;;;;3.40;2.00;;;;;;;;5012864;28;45914;-73
2023/08/19 11:56:00;;;;;;;;;1.00;0.50;;;;;;;;5005004;28;46275;-75
2023/08/19 11:58:47;;;;;;;;;1.75;1.75;;;;;;;;5012145;28;45267;-74
2023/08/19 12:01:13;;;;;;;;;1.00;1.00;;;;;;;;5007287;28;45403;-75
2023/08/19 12:03:45;;;;;;;;;1.25;1.25;;;;;;;;5008889;28;45368;-75
2023/08/19 12:06:10;;;;;;;;;0.20;0.20;;;;;;;;5006181;28;45360;-74
2023/08/19 12:08:38;;;;;;;;;1.75;1.00;;;;;;;;5012690;28;45275;-75
2023/08/19 12:11:03;;;;;;;;;0.40;0.40;;;;;;;;5017988;28;45526;-75
2023/08/19 12:13:28;;;;;;;;;1.00;1.00;;;;;;;;5012441;28;46002;-75
2023/08/19 12:15:54;;;;;;;;;3.00;2.00;;;;;;;;5018096;28;45214;-75
2023/08/19 12:18:20;;;;;;;;;2.25;0.75;;;;;;;;5017568;28;45439;-75
2023/08/19 12:20:45;;;;;;;;;1.75;1.75;;;;;;;;5017073;28;45232;-74
2023/08/19 12:23:11;;;;;;;;;1.00;1.00;;;;;;;;5017129;28;45494;-77
2023/08/19 12:25:52;;;;;;;;;2.50;1.25;;;;;;;;5016784;28;46159;-78
2023/08/19 12:28:18;;;;;;;;;0.80;0.80;;;;;;;;5011654;28;45352;-75
2023/08/19 12:30:43;;;;;;;;;0.00;0.00;;;;;;;;5021326;28;45233;-76
2023/08/19 12:33:08;;;;;;;;;1.75;1.75;;;;;;;;5012915;28;46854;-76
2023/08/19 12:35:34;;;;;;;;;1.75;1.00;;;;;;;;5021199;28;46393;-77
2023/08/19 12:38:00;;;;;;;;;0.20;0.20;;;;;;;;5014807;28;45388;-76
2023/08/19 12:40:25;;;;;;;;;1.00;1.00;;;;;;;;5021166;28;45191;-78
2023/08/19 12:42:52;;;;;;;;;1.50;1.50;;;;;;;;5015025;28;45445;-76
2023/08/19 12:45:18;;;;;;;;;0.00;0.00;;;;;;;;5020497;28;46230;-76
2023/08/19 12:47:43;;;;;;;;;1.00;1.00;;;;;;;;5014418;28;45452;-76
2023/08/19 12:50:09;;;;;;;;;1.75;1.75;;;;;;;;5020422;28;45382;-76
2023/08/19 12:52:34;;;;;;;;;2.00;1.00;;;;;;;;5012704;28;46093;-76
2023/08/19 12:54:59;;;;;;;;;1.75;1.00;;;;;;;;5020408;28;45974;-76
2023/08/19 12:57:25;;;;;;;;;2.00;0.00;;;;;;;;5014895;28;45256;-76
2023/08/19 12:59:50;;;;;;;;;0.50;0.50;;;;;;;;5018885;28;45366;-76
2023/08/19 13:02:15;;;;;;;;;3.75;1.75;;;;;;;;5016360;28;45911;-76
2023/08/19 13:04:40;;;;;;;;;1.00;0.75;;;;;;;;5019828;28;45343;-76
2023/08/19 13:07:06;;;;;;;;;0.00;0.00;;;;;;;;5018040;28;45357;-76
2023/08/19 13:09:31;;;;;;;;;4.25;0.00;;;;;;;;5017276;28;45454;-76
2023/08/19 13:11:56;;;;;;;;;1.50;1.25;;;;;;;;5018225;28;45365;-76
2023/08/19 13:14:21;;;;;;;;;0.50;0.25;;;;;;;;5016826;28;46317;-77
2023/08/19 13:16:47;;;;;;;;;0.25;0.25;;;;;;;;5016189;28;45186;-77
2023/08/19 13:19:12;;;;;;;;;1.00;0.00;;;;;;;;5019466;28;45362;-78
2023/08/19 13:21:37;;;;;;;;;0.00;0.00;;;;;;;;5020289;28;45443;-76
2023/08/19 13:24:03;;;;;;;;;0.00;0.00;;;;;;;;5021420;28;45456;-77
2023/08/19 13:26:28;;;;;;;;;0.25;0.25;;;;;;;;5021621;28;45220;-76
2023/08/19 13:28:53;;;;;;;;;3.00;1.25;;;;;;;;5019328;28;45303;-76
2023/08/19 13:31:19;;;;;;;;;0.50;0.50;;;;;;;;5020554;28;45368;-76
2023/08/19 13:33:44;;;;;;;;;0.25;0.25;;;;;;;;5012732;28;45132;-76
2023/08/19 13:36:09;;;;;;;;;0.50;0.50;;;;;;;;5020206;28;45300;-76
2023/08/19 13:38:34;;;;;;;;;0.25;0.00;;;;;;;;5014403;28;45224;-77
2023/08/19 13:40:59;;;;;;;;;0.00;0.00;;;;;;;;5018463;28;45758;-74
2023/08/19 13:43:24;;;;;;;;;0.00;0.00;;;;;;;;5012295;28;45383;-75
2023/08/19 13:45:50;;;;;;;;;1.00;0.00;;;;;;;;5019568;28;45299;-74
2023/08/19 13:48:15;;;;;;;;;0.50;0.00;;;;;;;;5011253;28;45404;-74
2023/08/19 13:50:41;;;;;;;;;0.00;0.00;;;;;;;;5011050;28;45569;-74
2023/08/19 13:53:06;;;;;;;;;0.00;0.00;;;;;;;;5010299;28;45986;-74
2023/08/19 13:55:33;;;;;;;;;1.00;0.00;;;;;;;;5011876;28;45423;-74
2023/08/19 13:57:58;;;;;;;;;0.00;0.00;;;;;;;;5017479;28;45395;-75
2023/08/19 14:00:23;;;;;;;;;0.00;0.00;;;;;;;;5017801;28;45939;-73
2023/08/19 14:02:49;;;;;;;;;1.25;0.25;;;;;;;;5012752;28;45421;-74
2023/08/19 14:05:15;;;;;;;;;0.00;0.00;;;;;;;;5019376;28;45282;-75
2023/08/19 14:07:41;;;;;;;;;0.00;0.00;;;;;;;;5013910;28;45475;-74
2023/08/19 14:10:06;;;;;;;;;0.00;0.00;;;;;;;;5014005;28;46046;-74
2023/08/19 14:12:31;;;;;;;;;0.00;0.00;;;;;;;;5015920;28;48430;-75
2023/08/19 14:14:57;;;;;;;;;0.00;0.00;;;;;;;;5016561;28;45303;-74
2023/08/19 14:17:22;;;;;;;;;0.00;0.00;;;;;;;;5016420;28;45393;-75
2023/08/19 14:19:47;;;;;;;;;0.00;0.00;;;;;;;;5008903;28;45498;-74
2023/08/19 14:22:12;;;;;;;;;1.25;1.25;;;;;;;;5015069;28;45353;-73
2023/08/19 14:24:37;;;;;;;;;0.00;0.00;;;;;;;;5013407;28;45451;-74
2023/08/19 14:27:03;;;;;;;;;0.00;0.00;;;;;;;;5015524;28;45187;-74
2023/08/19 14:29:29;;;;;;;;;0.00;0.00;;;;;;;;5014080;28;45293;-74
2023/08/19 14:31:54;;;;;;;;;0.75;0.00;;;;;;;;5017093;28;45654;-75
2023/08/19 14:34:19;;;;;;;;;1.00;0.00;;;;;;;;5014459;28;45266;-74
2023/08/19 14:36:44;;;;;;;;;0.00;0.00;;;;;;;;5016189;28;45561;-74
2023/08/19 14:39:11;;;;;;;;;0.75;0.75;;;;;;;;5014691;28;45554;-74
2023/08/19 14:41:36;;;;;;;;;3.20;1.00;;;;;;;;5016244;28;47606;-74
2023/08/19 14:44:01;;;;;;;;;1.00;1.00;;;;;;;;5017240;28;45261;-74
2023/08/19 14:46:26;;;;;;;;;1.25;1.25;;;;;;;;5017813;28;45342;-74
2023/08/19 14:48:51;;;;;;;;;1.00;1.00;;;;;;;;5011400;28;45507;-74
2023/08/19 14:51:17;;;;;;;;;0.75;0.75;;;;;;;;5017206;28;47934;-74
2023/08/19 14:53:42;;;;;;;;;1.50;1.50;;;;;;;;5011963;28;45422;-74
2023/08/19 14:56:07;;;;;;;;;0.25;0.25;;;;;;;;5017696;28;45581;-74
2023/08/19 14:58:33;;;;;;;;;2.75;1.00;;;;;;;;5011839;28;45485;-74
2023/08/19 15:00:58;;;;;;;;;2.00;0.00;;;;;;;;5017104;28;46445;-74
2023/08/19 15:03:24;;;;;;;;;2.25;2.00;;;;;;;;5012579;28;45659;-74
2023/08/19 15:05:49;;;;;;;;;0.75;0.75;;;;;;;;5012585;28;45504;-74
2023/08/19 15:08:14;;;;;;;;;0.00;0.00;;;;;;;;5012612;28;45407;-75
2023/08/19 15:10:39;;;;;;;;;0.50;0.00;;;;;;;;5013747;28;45766;-74
2023/08/19 15:13:05;;;;;;;;;0.00;0.00;;;;;;;;5013198;28;45396;-74
2023/08/19 15:15:31;;;;;;;;;0.50;0.50;;;;;;;;5015511;28;45324;-74
2023/08/19 15:17:56;;;;;;;;;1.20;0.00;;;;;;;;5014052;28;45443;-74
2023/08/19 15:20:21;;;;;;;;;0.50;0.50;;;;;;;;5016780;28;45354;-75
2023/08/19 15:22:46;;;;;;;;;0.00;0.00;;;;;;;;5013703;28;45470;-74
2023/08/19 15:25:11;;;;;;;;;0.50;0.50;;;;;;;;5012330;28;45436;-74
2023/08/19 15:27:38;;;;;;;;;0.00;0.00;;;;;;;;5012274;28;45740;-74
2023/08/19 15:30:04;;;;;;;;;1.00;0.00;;;;;;;;5017979;28;46727;-74
2023/08/19 15:32:30;;;;;;;;;0.00;0.00;;;;;;;;5012697;28;45423;-74
2023/08/19 15:34:55;;;;;;;;;1.50;1.50;;;;;;;;5016040;28;45280;-75
2023/08/19 15:37:22;;;;;;;;;0.00;0.00;;;;;;;;5010564;28;46230;-74
2023/08/19 15:39:48;;;;;;;;;0.00;0.00;;;;;;;;5005876;28;45496;-74
2023/08/19 15:42:13;;;;;;;;;1.00;0.00;;;;;;;;5013467;28;45514;-74
2023/08/19 15:44:38;;;;;;;;;2.00;0.00;;;;;;;;5018050;28;45265;-74
2023/08/19 15:47:04;;;;;;;;;0.25;0.25;;;;;;;;5007909;28;45848;-74
2023/08/19 15:49:29;;;;;;;;;1.75;0.00;;;;;;;;5007506;28;46214;-80
2023/08/19 15:51:54;;;;;;;;;1.00;0.00;;;;;;;;5016388;28;45343;-80
2023/08/19 15:54:19;;;;;;;;;34.50;29.00;;;;;;;;5006572;28;45369;-81
2023/08/19 15:56:44;;;;;;;;;2.00;2.00;;;;;;;;5007538;28;45285;-80
2023/08/19 15:59:10;;;;;;;;;2.75;1.25;;;;;;;;5013817;28;46662;-80
2023/08/19 16:01:36;;;;;;;;;3.25;1.75;;;;;;;;5019618;28;45336;-81
2023/08/19 16:04:01;;;;;;;;;1.00;1.00;;;;;;;;5003930;28;45313;-80
2023/08/19 16:06:26;;;;;;;;;0.50;0.50;;;;;;;;5020456;28;45360;-81
2023/08/19 16:08:51;;;;;;;;;0.75;0.75;;;;;;;;5014045;28;46197;-81
2023/08/19 16:11:16;;;;;;;;;0.00;0.00;;;;;;;;5020055;28;45408;-80
2023/08/19 16:13:42;;;;;;;;;3.50;1.50;;;;;;;;5016263;28;45359;-81
2023/08/19 16:16:07;;;;;;;;;0.00;0.00;;;;;;;;5020214;28;45415;-80
2023/08/19 16:18:33;;;;;;;;;1.25;1.25;;;;;;;;5018385;28;45407;-81
2023/08/19 16:20:59;;;;;;;;;1.80;1.60;;;;;;;;5019328;28;45336;-80
2023/08/19 16:23:24;;;;;;;;;0.25;0.25;;;;;;;;5019105;28;45266;-80
2023/08/19 16:25:49;;;;;;;;;0.50;0.50;;;;;;;;5020318;28;45277;-80
2023/08/19 16:28:15;;;;;;;;;2.00;1.00;;;;;;;;5012400;28;46298;-79
2023/08/19 16:30:40;;;;;;;;;2.50;1.50;;;;;;;;5019254;28;45158;-80
2023/08/19 16:33:05;;;;;;;;;1.00;1.00;;;;;;;;5017865;28;45126;-81
2023/08/19 16:35:30;;;;;;;;;0.00;0.00;;;;;;;;5023019;28;45300;-80
2023/08/19 16:37:56;;;;;;;;;2.75;0.00;;;;;;;;5017750;28;45358;-79
2023/08/19 16:40:21;;;;;;;;;2.00;1.75;;;;;;;;5021058;28;45237;-80
2023/08/19 16:42:46;;;;;;;;;1.25;0.25;;;;;;;;5014510;28;45688;-80
2023/08/19 16:45:12;;;;;;;;;0.00;0.00;;;;;;;;5019826;28;45205;-80
2023/08/19 16:47:37;;;;;;;;;1.75;0.25;;;;;;;;5017831;28;45599;-80
2023/08/19 16:50:02;;;;;;;;;1.00;1.00;;;;;;;;5017510;28;45429;-79
2023/08/19 16:52:27;;;;;;;;;0.50;0.50;;;;;;;;5013429;28;45576;-80
2023/08/19 16:54:53;;;;;;;;;2.25;1.00;;;;;;;;5016156;28;47111;-80
2023/08/19 16:57:18;;;;;;;;;0.00;0.00;;;;;;;;5015416;28;45597;-81
2023/08/19 16:59:43;;;;;;;;;2.00;2.00;;;;;;;;5018387;28;45349;-79
2023/08/19 17:02:08;;;;;;;;;1.50;0.25;;;;;;;;5017704;28;45400;-80
2023/08/19 17:04:33;;;;;;;;;4.25;2.25;;;;;;;;5020149;28;45260;-80
2023/08/19 17:06:59;;;;;;;;;2.00;2.00;;;;;;;;5018569;28;45462;-81
2023/08/19 17:09:24;;;;;;;;;1.25;1.25;;;;;;;;5013152;28;45289;-83
2023/08/19 17:11:49;;;;;;;;;1.00;1.00;;;;;;;;5018485;28;45256;-78
2023/08/19 17:14:14;;;;;;;;;2.50;1.75;;;;;;;;5018644;28;45431;-78
2023/08/19 17:16:40;;;;;;;;;0.00;0.00;;;;;;;;5017915;28;45495;-80
2023/08/19 17:19:05;;;;;;;;;2.00;1.50;;;;;;;;5015163;28;45337;-79
2023/08/19 17:21:30;;;;;;;;;2.25;1.00;;;;;;;;5019677;28;45225;-80
2023/08/19 17:23:55;;;;;;;;;1.50;1.50;;;;;;;;5018845;28;45424;-76
2023/08/19 17:26:21;;;;;;;;;2.00;1.00;;;;;;;;5019684;28;45618;-79
2023/08/19 17:28:46;;;;;;;;;1.50;1.50;;;;;;;;5017684;28;45989;-79
2023/08/19 17:31:11;;;;;;;;;0.00;0.00;;;;;;;;5007370;28;45431;-81
2023/08/19 17:33:36;;;;;;;;;0.75;0.50;;;;;;;;5009352;28;45228;-80
2023/08/19 17:36:03;;;;;;;;;2.50;2.00;;;;;;;;5018420;28;46873;-79
2023/08/19 17:38:28;;;;;;;;;0.20;0.20;;;;;;;;5014211;28;45427;-78
2023/08/19 17:41:00;;;;;;;;;2.75;1.75;;;;;;;;5019633;28;45340;-80
2023/08/19 17:43:26;;;;;;;;;2.80;1.20;;;;;;;;5017168;28;45944;-79
2023/08/19 17:45:53;;;;;;;;;1.00;0.75;;;;;;;;5019453;28;45416;-80
2023/08/19 17:48:18;;;;;;;;;1.60;1.60;;;;;;;;5011519;28;45328;-80
2023/08/19 17:50:43;;;;;;;;;2.25;1.25;;;;;;;;5019418;28;45523;-79
2023/08/19 17:53:08;;;;;;;;;3.25;2.25;;;;;;;;5012617;28;45248;-80
2023/08/19 17:55:33;;;;;;;;;5.25;2.25;;;;;;;;5015309;28;45351;-81
2023/08/19 17:57:59;;;;;;;;;3.50;3.50;;;;;;;;5011877;28;45343;-81
2023/08/19 18:00:24;;;;;;;;;5.50;3.00;;;;;;;;5020092;28;45431;-82
2023/08/19 18:02:49;;;;;;;;;1.25;1.25;;;;;;;;5013890;28;45416;-80
2023/08/19 18:05:14;;;;;;;;;3.50;3.50;;;;;;;;5016178;28;45399;-80
2023/08/19 18:07:39;;;;;;;;;4.75;3.25;;;;;;;;5015224;28;45405;-80
2023/08/19 18:10:05;;;;;;;;;4.00;3.00;;;;;;;;5017513;28;45189;-80
2023/08/19 18:12:30;;;;;;;;;6.25;4.00;;;;;;;;5015096;28;45522;-79
2023/08/19 18:14:55;;;;;;;;;5.50;3.00;;;;;;;;5008313;28;45339;-79
2023/08/19 18:17:20;;;;;;;;;3.00;3.00;;;;;;;;5016446;28;45383;-79
2023/08/19 18:19:46;;;;;;;;;4.25;4.00;;;;;;;;5009885;28;45308;-79
2023/08/19 18:22:11;;;;;;;;;4.25;3.00;;;;;;;;5017713;28;45486;-80
2023/08/19 18:24:36;;;;;;;;;3.00;3.00;;;;;;;;5019061;28;46136;-79
2023/08/19 18:27:02;;;;;;;;;5.00;5.00;;;;;;;;5017642;28;45437;-78
2023/08/19 18:29:27;;;;;;;;;5.00;3.00;;;;;;;;5015644;28;45374;-80
2023/08/19 18:31:56;;;;;;;;;4.00;3.00;;;;;;;;5017458;28;45689;-77
2023/08/19 18:34:21;;;;;;;;;5.60;4.00;;;;;;;;5012314;28;45351;-80
2023/08/19 18:36:47;;;;;;;;;4.00;4.00;;;;;;;;5016839;28;45403;-80
2023/08/19 18:39:12;;;;;;;;;7.50;5.00;;;;;;;;5017793;28;45215;-79
2023/08/19 18:41:37;;;;;;;;;4.25;4.25;;;;;;;;5018214;28;45797;-80
2023/08/19 18:44:02;;;;;;;;;8.00;6.00;;;;;;;;5016360;28;45525;-79
2023/08/19 18:46:28;;;;;;;;;4.00;3.75;;;;;;;;5018661;28;45241;-79
2023/08/19 18:48:53;;;;;;;;;3.75;3.50;;;;;;;;5010255;28;45375;-80
2023/08/19 18:51:18;;;;;;;;;4.00;3.50;;;;;;;;5019017;28;45197;-79
2023/08/19 18:53:43;;;;;;;;;8.00;4.00;;;;;;;;5013004;28;45461;-80
2023/08/19 18:56:08;;;;;;;;;8.00;3.50;;;;;;;;5016338;28;45458;-79
2023/08/19 18:58:34;;;;;;;;;3.00;3.00;;;;;;;;5011811;28;45208;-80
2023/08/19 19:01:03;;;;;;;;;6.50;5.75;;;;;;;;5013249;28;45579;-81
2023/08/19 19:03:28;;;;;;;;;6.40;6.40;;;;;;;;5014221;28;45454;-79
2023/08/19 19:05:53;;;;;;;;;9.00;6.25;;;;;;;;5015787;28;45395;-82
2023/08/19 19:08:19;;;;;;;;;6.00;6.00;;;;;;;;5015634;28;45433;-79
2023/08/19 19:10:44;;;;;;;;;8.00;6.50;;;;;;;;5017279;28;45325;-81
2023/08/19 19:13:09;;;;;;;;;9.25;9.25;;;;;;;;5009980;28;46375;-82
2023/08/19 19:15:34;;;;;;;;;8.00;8.00;;;;;;;;5017462;28;45238;-79
2023/08/19 19:18:00;;;;;;;;;7.00;7.00;;;;;;;;5016764;28;45319;-80
2023/08/19 19:20:26;;;;;;;;;7.00;7.00;;;;;;;;5020709;28;45303;-81
2023/08/19 19:22:52;;;;;;;;;8.50;8.00;;;;;;;;5017626;28;45430;-81
2023/08/19 19:25:18;;;;;;;;;9.00;6.25;;;;;;;;5020281;28;45521;-82
2023/08/19 19:27:43;;;;;;;;;10.50;8.25;;;;;;;;5019487;28;45463;-82
2023/08/19 19:30:09;;;;;;;;;8.00;8.00;;;;;;;;5020551;28;45598;-81
2023/08/19 19:32:39;;;;;;;;;6.75;6.75;;;;;;;;5019976;28;47555;-81
2023/08/19 19:35:05;;;;;;;;;10.40;8.40;;;;;;;;5019683;28;45583;-80
2023/08/19 19:37:30;;;;;;;;;8.00;8.00;;;;;;;;5017554;28;45962;-80
2023/08/19 19:39:56;;;;;;;;;7.25;6.25;;;;;;;;5021579;28;45565;-80
2023/08/19 19:42:21;;;;;;;;;8.75;7.00;;;;;;;;5017720;28;45514;-79
2023/08/19 19:44:46;;;;;;;;;9.25;9.25;;;;;;;;5020958;28;45368;-80
2023/08/19 19:47:12;;;;;;;;;7.00;5.50;;;;;;;;5018972;28;45308;-81
2023/08/19 19:49:38;;;;;;;;;12.00;8.50;;;;;;;;5018176;28;45462;-80
2023/08/19 19:52:04;;;;;;;;;8.50;7.75;;;;;;;;5019383;28;46247;-80
2023/08/19 19:54:29;;;;;;;;;9.50;8.50;;;;;;;;5017339;28;45889;-81
2023/08/19 19:56:55;;;;;;;;;6.75;5.50;;;;;;;;5019843;28;45360;-80
2023/08/19 19:59:20;;;;;;;;;9.50;8.50;;;;;;;;5017391;28;45380;-80
2023/08/19 20:01:45;;;;;;;;;7.50;7.50;;;;;;;;5020009;28;46460;-78
2023/08/19 20:04:11;;;;;;;;;8.25;6.50;;;;;;;;5019338;28;46412;-79
2023/08/19 20:06:36;;;;;;;;;7.00;5.50;;;;;;;;5020931;28;45470;-78
2023/08/19 20:09:01;;;;;;;;;8.50;5.50;;;;;;;;5014809;28;46309;-78
2023/08/19 20:11:26;;;;;;;;;5.00;5.00;;;;;;;;5021206;28;46190;-81
2023/08/19 20:13:51;;;;;;;;;6.50;4.25;;;;;;;;5014470;28;45151;-79
2023/08/19 20:16:17;;;;;;;;;5.75;4.25;;;;;;;;5021229;28;45261;-78
2023/08/19 20:18:42;;;;;;;;;6.75;4.25;;;;;;;;5011259;28;45222;-80